createdAt,value
2017-10-27T00:02:32.994Z,52.80
2017-10-27T00:05:07.612Z,51.80
2017-10-27T00:07:44.372Z,52.10
2017-10-27T00:10:15.840Z,52.70
2017-10-27T00:12:46.990Z,51.40
2017-10-27T00:15:18.346Z,51.20
2017-10-27T00:17:50.366Z,51.40
2017-10-27T00:20:22.466Z,51.80
2017-10-27T00:22:53.729Z,51.40
2017-10-27T00:25:26.306Z,51.30
2017-10-27T00:27:58.766Z,51.80
2017-10-27T00:30:28.487Z,51.80
2017-10-27T00:33:00.406Z,51.60
2017-10-27T00:35:32.347Z,51.10
2017-10-27T00:38:05.706Z,51.10
2017-10-27T00:40:37.874Z,51.30
2017-10-27T00:43:09.626Z,51.40
2017-10-27T00:45:43.527Z,51.80
2017-10-27T00:48:15.486Z,52.00
2017-10-27T00:50:47.045Z,52.20
2017-10-27T00:53:19.927Z,52.20
2017-10-27T00:55:50.766Z,52.00
2017-10-27T00:58:22.726Z,52.30
2017-10-27T01:00:53.446Z,52.30
2017-10-27T01:03:25.734Z,52.30
2017-10-27T01:05:56.346Z,52.30
2017-10-27T01:08:29.347Z,53.30
2017-10-27T01:11:00.491Z,53.20
2017-10-27T01:13:31.727Z,53.90
2017-10-27T01:16:08.307Z,53.40
2017-10-27T01:18:40.553Z,53.10
2017-10-27T01:21:15.366Z,53.10
2017-10-27T01:23:48.486Z,52.90
2017-10-27T01:26:20.387Z,53.00
2017-10-27T01:28:55.287Z,52.90
2017-10-27T01:31:27.966Z,52.90
2017-10-27T01:34:00.426Z,53.00
2017-10-27T01:36:31.466Z,53.90
2017-10-27T01:39:05.367Z,53.70
2017-10-27T01:41:40.607Z,53.60
2017-10-27T01:44:12.067Z,54.30
2017-10-27T01:46:45.781Z,54.90
2017-10-27T01:49:16.807Z,54.70
2017-10-27T01:51:48.671Z,54.30
2017-10-27T01:54:19.347Z,54.30
2017-10-27T01:56:51.667Z,54.10
2017-10-27T01:59:23.367Z,54.00
2017-10-27T02:02:00.707Z,53.70
2017-10-27T02:04:32.066Z,54.00
2017-10-27T02:07:03.828Z,53.10
2017-10-27T02:09:35.986Z,52.50
2017-10-27T02:12:08.247Z,52.20
2017-10-27T02:14:42.270Z,51.50
2017-10-27T02:17:15.047Z,50.90
2017-10-27T02:19:46.906Z,50.40
2017-10-27T02:22:24.366Z,49.90
2017-10-27T02:24:58.507Z,49.80
2017-10-27T02:27:29.749Z,49.50
2017-10-27T02:30:03.047Z,49.50
2017-10-27T02:32:37.867Z,49.50
2017-10-27T02:35:09.849Z,48.80
2017-10-27T02:37:42.927Z,48.70
2017-10-27T02:40:13.972Z,48.20
2017-10-27T02:42:46.126Z,47.70
2017-10-27T02:45:18.106Z,48.00
2017-10-27T02:47:50.366Z,47.80
2017-10-27T02:50:22.336Z,47.60
2017-10-27T02:52:59.305Z,47.30
2017-10-27T02:55:31.686Z,47.20
2017-10-27T02:58:02.606Z,47.40
2017-10-27T03:00:35.305Z,47.50
2017-10-27T03:03:07.466Z,47.50
2017-10-27T03:05:40.386Z,47.50
2017-10-27T03:08:11.686Z,47.70
2017-10-27T03:10:43.645Z,48.20
2017-10-27T03:13:14.485Z,48.20
2017-10-27T03:15:45.526Z,48.40
2017-10-27T03:18:19.386Z,48.30
2017-10-27T03:20:51.806Z,49.30
2017-10-27T03:23:23.046Z,49.30
2017-10-27T03:25:56.645Z,49.60
2017-10-27T03:28:28.009Z,49.60
2017-10-27T03:30:58.387Z,49.60
2017-10-27T03:33:34.986Z,49.70
2017-10-27T03:36:07.561Z,49.70
2017-10-27T03:38:40.966Z,49.70
2017-10-27T03:41:15.066Z,49.40
2017-10-27T03:43:47.665Z,50.30
2017-10-27T03:46:18.509Z,50.30
2017-10-27T03:48:50.667Z,49.30
2017-10-27T03:51:26.386Z,50.00
2017-10-27T03:53:56.626Z,49.90
2017-10-27T03:56:27.369Z,51.30
2017-10-27T03:58:59.526Z,50.10
2017-10-27T04:01:31.706Z,49.60
2017-10-27T04:04:03.766Z,49.60
2017-10-27T04:06:35.007Z,50.40
2017-10-27T04:09:06.047Z,51.70
2017-10-27T04:11:39.446Z,51.80
2017-10-27T04:14:10.786Z,51.80
2017-10-27T04:16:44.085Z,51.50
2017-10-27T04:19:16.346Z,51.50
2017-10-27T04:21:47.486Z,51.40
2017-10-27T04:24:21.706Z,52.00
2017-10-27T04:26:56.946Z,52.00
2017-10-27T04:29:30.966Z,51.00
2017-10-27T04:32:02.605Z,51.20
2017-10-27T04:34:33.405Z,51.40
2017-10-27T04:37:13.386Z,51.40
2017-10-27T04:39:45.766Z,52.30
2017-10-27T04:42:17.386Z,51.70
2017-10-27T04:44:49.073Z,52.50
2017-10-27T04:47:22.366Z,52.80
2017-10-27T04:49:53.386Z,52.80
2017-10-27T04:52:25.685Z,53.20
2017-10-27T04:54:58.426Z,53.20
2017-10-27T04:57:33.805Z,53.60
2017-10-27T05:00:07.607Z,54.10
2017-10-27T05:02:39.366Z,54.30
2017-10-27T05:05:11.627Z,54.20
2017-10-27T05:07:42.586Z,53.90
2017-10-27T05:10:13.506Z,54.30
2017-10-27T05:12:54.386Z,55.10
2017-10-27T05:15:25.647Z,54.40
2017-10-27T05:18:03.326Z,52.90
2017-10-27T05:20:41.646Z,53.40
2017-10-27T05:23:22.912Z,53.10
2017-10-27T05:25:54.554Z,52.90
2017-10-27T05:28:26.530Z,52.40
2017-10-27T05:30:57.411Z,51.50
2017-10-27T05:33:29.630Z,50.50
2017-10-27T05:36:00.670Z,50.70
2017-10-27T05:38:32.530Z,51.00
2017-10-27T05:41:03.893Z,49.90
2017-10-27T05:43:35.853Z,49.70
2017-10-27T05:46:07.713Z,50.10
2017-10-27T05:48:41.094Z,50.70
2017-10-27T05:51:16.041Z,50.70
2017-10-27T05:53:47.894Z,50.70
2017-10-27T05:56:20.673Z,50.60
2017-10-27T05:58:52.636Z,50.60
2017-10-27T06:01:27.394Z,50.90
2017-10-27T06:03:58.713Z,50.70
2017-10-27T06:06:32.820Z,51.20
2017-10-27T06:09:06.933Z,52.00
2017-10-27T06:11:39.093Z,51.30
2017-10-27T06:14:10.753Z,51.60
2017-10-27T06:16:41.693Z,52.70
2017-10-27T06:19:13.553Z,51.70
2017-10-27T06:21:44.453Z,53.00
2017-10-27T06:24:17.782Z,52.70
2017-10-27T06:26:48.613Z,53.60
2017-10-27T06:29:19.753Z,53.10
2017-10-27T06:31:50.893Z,53.10
2017-10-27T06:34:22.754Z,53.10
2017-10-27T06:36:54.714Z,53.20
2017-10-27T06:39:32.833Z,52.90
2017-10-27T06:42:04.433Z,52.90
2017-10-27T06:44:35.393Z,54.60
2017-10-27T06:47:09.015Z,55.00
2017-10-27T06:49:40.893Z,55.10
2017-10-27T06:52:12.954Z,55.50
2017-10-27T06:54:44.814Z,55.80
2017-10-27T06:57:18.413Z,56.10
2017-10-27T06:59:51.294Z,56.30
2017-10-27T07:02:23.154Z,56.50
2017-10-27T07:04:57.171Z,56.50
2017-10-27T07:07:28.701Z,56.40
2017-10-27T07:10:00.784Z,56.80
2017-10-27T07:12:32.210Z,56.20
2017-10-27T07:15:03.412Z,56.20
2017-10-27T07:17:34.303Z,56.20
2017-10-27T07:20:06.424Z,56.60
2017-10-27T07:22:37.824Z,57.10
2017-10-27T07:25:13.393Z,58.10
2017-10-27T07:27:45.408Z,59.60
2017-10-27T07:30:19.944Z,60.00
2017-10-27T07:32:50.883Z,60.70
2017-10-27T07:35:25.623Z,61.30
2017-10-27T07:37:57.382Z,62.20
2017-10-27T07:40:28.830Z,63.90
2017-10-27T07:43:00.164Z,64.80
2017-10-27T07:45:33.764Z,66.40
2017-10-27T07:48:06.764Z,66.10
2017-10-27T07:50:38.422Z,66.50
2017-10-27T07:53:10.072Z,67.00
2017-10-27T07:55:40.391Z,67.20
2017-10-27T07:58:11.531Z,67.40
2017-10-27T08:00:42.432Z,68.00
2017-10-27T08:03:16.392Z,68.30
2017-10-27T08:05:48.133Z,68.60
2017-10-27T08:08:17.531Z,68.50
2017-10-27T08:10:48.371Z,68.70
2017-10-27T08:13:19.111Z,68.70
2017-10-27T08:15:52.411Z,68.80
2017-10-27T08:18:24.271Z,68.10
2017-10-27T08:20:56.411Z,67.20
2017-10-27T08:23:30.032Z,66.60
2017-10-27T08:26:01.571Z,66.50
2017-10-27T08:28:32.732Z,66.60
2017-10-27T08:31:06.718Z,66.40
2017-10-27T08:33:38.790Z,66.20
2017-10-27T08:36:10.970Z,65.80
2017-10-27T08:38:42.209Z,65.90
2017-10-27T08:41:13.769Z,65.50
2017-10-27T08:43:47.270Z,65.10
2017-10-27T08:46:18.455Z,65.30
2017-10-27T08:48:50.432Z,65.00
2017-10-27T08:51:22.537Z,65.00
2017-10-27T08:53:54.297Z,64.80
2017-10-27T08:56:25.430Z,64.80
2017-10-27T08:58:56.432Z,64.70
2017-10-27T09:01:34.062Z,64.10
2017-10-27T09:04:05.299Z,64.10
2017-10-27T09:06:36.746Z,65.20
2017-10-27T09:09:08.127Z,65.10
2017-10-27T09:11:41.186Z,65.10
2017-10-27T09:14:14.066Z,66.80
2017-10-27T09:16:45.306Z,66.40
2017-10-27T09:19:16.660Z,66.30
2017-10-27T09:21:48.830Z,66.50
2017-10-27T09:24:22.345Z,66.50
2017-10-27T09:27:00.040Z,66.40
2017-10-27T09:29:31.995Z,67.20
2017-10-27T09:32:05.396Z,67.20
2017-10-27T09:34:41.036Z,67.50
2017-10-27T09:37:13.469Z,68.40
2017-10-27T09:39:46.435Z,68.30
2017-10-27T09:42:18.436Z,68.20
2017-10-27T09:44:49.395Z,67.80
2017-10-27T09:47:21.435Z,68.60
2017-10-27T09:49:55.055Z,68.40
2017-10-27T09:52:28.435Z,68.00
2017-10-27T09:55:03.190Z,68.00
2017-10-27T09:57:34.846Z,67.50
2017-10-27T10:00:08.127Z,67.80
2017-10-27T10:02:46.742Z,68.40
2017-10-27T10:05:17.801Z,68.40
2017-10-27T10:07:48.463Z,68.30
2017-10-27T10:10:19.562Z,69.10
2017-10-27T10:12:52.543Z,68.60
2017-10-27T10:15:24.011Z,68.60
2017-10-27T10:17:55.125Z,68.30
2017-10-27T10:20:29.246Z,68.50
2017-10-27T10:23:00.707Z,68.10
2017-10-27T10:25:31.433Z,68.70
2017-10-27T10:28:05.345Z,68.00
2017-10-27T10:30:37.308Z,68.00
2017-10-27T10:33:09.588Z,68.50
2017-10-27T10:35:40.926Z,68.80
2017-10-27T10:38:13.085Z,67.90
2017-10-27T10:40:44.326Z,61.80
2017-10-27T10:43:15.906Z,60.80
2017-10-27T10:45:48.146Z,60.40
2017-10-27T10:48:21.445Z,60.40
2017-10-27T10:50:53.606Z,61.30
2017-10-27T10:53:26.467Z,63.10
2017-10-27T10:55:57.746Z,63.80
2017-10-27T10:58:29.426Z,64.50
2017-10-27T11:01:01.267Z,64.30
2017-10-27T11:03:36.447Z,63.90
2017-10-27T11:06:11.348Z,64.30
2017-10-27T11:08:42.566Z,64.40
2017-10-27T11:11:14.466Z,66.20
2017-10-27T11:13:49.047Z,66.10
2017-10-27T11:16:19.986Z,66.00
2017-10-27T11:18:50.926Z,67.10
2017-10-27T11:21:22.286Z,67.80
2017-10-27T11:23:53.828Z,67.70
2017-10-27T11:26:31.107Z,67.70
2017-10-27T11:29:05.230Z,66.30
2017-10-27T11:31:36.447Z,66.50
2017-10-27T11:34:09.568Z,66.00
2017-10-27T11:36:40.813Z,66.00
2017-10-27T11:39:13.394Z,66.50
2017-10-27T11:41:48.412Z,66.40
2017-10-27T11:44:19.169Z,63.80
2017-10-27T11:46:51.453Z,66.00
2017-10-27T11:49:25.232Z,66.80
2017-10-27T11:51:59.432Z,66.10
2017-10-27T11:54:31.928Z,66.00
2017-10-27T11:57:03.438Z,66.10
2017-10-27T11:59:34.731Z,65.70
2017-10-27T12:02:06.362Z,65.60
2017-10-27T12:04:43.644Z,66.10
2017-10-27T12:07:17.039Z,66.10
2017-10-27T12:09:53.123Z,65.60
2017-10-27T12:12:25.774Z,64.50
2017-10-27T12:14:57.503Z,63.90
2017-10-27T12:17:28.281Z,62.60
2017-10-27T12:19:59.416Z,62.60
2017-10-27T12:22:31.074Z,62.50
2017-10-27T12:25:02.936Z,64.80
2017-10-27T12:27:33.751Z,66.40
2017-10-27T12:30:06.031Z,66.10
2017-10-27T12:32:40.151Z,65.70
2017-10-27T12:35:11.812Z,66.70
2017-10-27T12:37:44.079Z,67.70
2017-10-27T12:40:22.900Z,67.90
2017-10-27T12:42:56.099Z,67.70
2017-10-27T12:45:29.280Z,68.10
2017-10-27T12:48:01.159Z,68.10
2017-10-27T12:50:36.463Z,68.60
2017-10-27T12:53:07.418Z,68.80
2017-10-27T12:55:39.280Z,68.80
2017-10-27T12:58:13.899Z,69.20
2017-10-27T13:00:46.091Z,69.10
2017-10-27T13:03:18.055Z,69.80
2017-10-27T13:05:49.182Z,68.60
2017-10-27T13:08:20.824Z,69.00
2017-10-27T13:10:58.459Z,69.10
2017-10-27T13:13:30.999Z,69.80
2017-10-27T13:16:08.399Z,69.90
2017-10-27T13:18:40.238Z,68.00
2017-10-27T13:21:19.459Z,67.00
2017-10-27T13:23:51.039Z,67.00
2017-10-27T13:26:22.780Z,67.50
2017-10-27T13:28:53.919Z,67.60
2017-10-27T13:31:25.899Z,67.20
2017-10-27T13:33:57.271Z,66.60
2017-10-27T13:36:28.898Z,67.60
2017-10-27T13:39:00.039Z,67.60
2017-10-27T13:41:33.321Z,67.70
2017-10-27T13:44:12.459Z,68.20
2017-10-27T13:46:47.599Z,66.40
2017-10-27T13:49:18.319Z,66.70
2017-10-27T13:51:49.568Z,67.10
2017-10-27T13:54:21.118Z,67.90
2017-10-27T13:56:56.061Z,67.20
2017-10-27T13:59:28.259Z,65.90
2017-10-27T14:02:01.099Z,65.50
2017-10-27T14:04:32.859Z,65.40
2017-10-27T14:07:04.619Z,66.40
2017-10-27T14:09:36.676Z,66.40
2017-10-27T14:12:09.057Z,67.80
2017-10-27T14:14:40.808Z,68.30
2017-10-27T14:17:11.966Z,67.50
2017-10-27T14:19:45.856Z,67.40
2017-10-27T14:22:17.815Z,68.00
2017-10-27T14:24:48.355Z,68.20
2017-10-27T14:27:20.417Z,68.00
2017-10-27T14:29:54.484Z,67.30
2017-10-27T14:32:25.516Z,67.20
2017-10-27T14:34:57.493Z,67.00
2017-10-27T14:37:29.100Z,66.20
2017-10-27T14:40:00.340Z,66.00
2017-10-27T14:42:31.777Z,67.20
2017-10-27T14:45:03.636Z,66.40
2017-10-27T14:47:35.595Z,66.80
2017-10-27T14:50:12.042Z,66.80
2017-10-27T14:52:46.785Z,66.90
2017-10-27T14:55:18.490Z,66.90
2017-10-27T14:57:49.179Z,66.80
2017-10-27T15:00:22.522Z,67.40
2017-10-27T15:02:56.096Z,66.70
2017-10-27T15:05:30.296Z,67.30
2017-10-27T15:08:03.476Z,67.80
2017-10-27T15:10:34.836Z,67.60
2017-10-27T15:13:09.501Z,66.80
2017-10-27T15:15:40.602Z,67.70
2017-10-27T15:18:11.501Z,67.10
2017-10-27T15:20:42.543Z,65.90
2017-10-27T15:23:16.581Z,65.80
2017-10-27T15:25:48.342Z,66.30
2017-10-27T15:28:23.981Z,66.70
2017-10-27T15:30:55.741Z,67.50
2017-10-27T15:33:26.782Z,69.00
2017-10-27T15:35:58.142Z,69.00
2017-10-27T15:38:29.602Z,68.60
2017-10-27T15:41:01.141Z,69.00
2017-10-27T15:43:32.382Z,69.40
2017-10-27T15:46:04.465Z,69.90
2017-10-27T15:48:36.922Z,70.00
2017-10-27T15:51:08.982Z,69.40
2017-10-27T15:53:43.094Z,70.10
2017-10-27T15:56:16.616Z,70.90
2017-10-27T15:58:51.215Z,70.90
2017-10-27T16:01:25.419Z,69.70
2017-10-27T16:03:59.031Z,69.70
2017-10-27T16:06:30.792Z,68.30
2017-10-27T16:09:01.822Z,67.70
2017-10-27T16:11:32.657Z,68.30
2017-10-27T16:14:04.016Z,68.90
2017-10-27T16:16:35.872Z,68.90
2017-10-27T16:19:07.432Z,68.40
2017-10-27T16:21:38.762Z,65.90
2017-10-27T16:24:09.913Z,64.70
2017-10-27T16:26:42.491Z,60.30
2017-10-27T16:29:14.252Z,62.80
2017-10-27T16:31:45.393Z,65.40
2017-10-27T16:34:17.154Z,66.60
2017-10-27T16:36:55.156Z,65.40
2017-10-27T16:39:27.733Z,65.40
2017-10-27T16:41:58.532Z,67.50
2017-10-27T16:44:30.493Z,67.50
2017-10-27T16:47:00.952Z,67.30
2017-10-27T16:49:33.213Z,68.00
2017-10-27T16:52:04.532Z,68.60
2017-10-27T16:54:36.492Z,68.90
2017-10-27T16:57:07.672Z,69.20
2017-10-27T16:59:39.332Z,69.60
2017-10-27T17:02:10.573Z,69.30
2017-10-27T17:04:42.333Z,69.40
2017-10-27T17:07:13.692Z,69.20
2017-10-27T17:09:44.932Z,68.90
2017-10-27T17:12:18.492Z,68.80
2017-10-27T17:14:50.903Z,69.10
2017-10-27T17:17:21.858Z,69.90
2017-10-27T17:19:53.073Z,69.70
2017-10-27T17:22:25.493Z,69.40
2017-10-27T17:25:02.012Z,70.20
2017-10-27T17:27:33.272Z,70.20
2017-10-27T17:30:06.874Z,70.10
2017-10-27T17:32:39.134Z,69.90
2017-10-27T17:35:18.514Z,70.40
2017-10-27T17:37:54.513Z,70.70
2017-10-27T17:40:25.994Z,70.60
2017-10-27T17:42:57.013Z,70.10
2017-10-27T17:45:35.498Z,70.40
2017-10-27T17:48:09.434Z,71.00
2017-10-27T17:50:41.194Z,69.80
2017-10-27T17:53:17.753Z,70.30
2017-10-27T17:55:52.174Z,70.10
2017-10-27T17:58:23.837Z,71.30
2017-10-27T18:00:54.551Z,70.90
2017-10-27T18:03:26.852Z,70.40
2017-10-27T18:05:58.533Z,71.10
2017-10-27T18:08:29.953Z,70.40
2017-10-27T18:11:02.113Z,70.60
2017-10-27T18:13:35.193Z,71.00
2017-10-27T18:16:07.760Z,71.20
2017-10-27T18:18:39.953Z,71.20
2017-10-27T18:21:13.133Z,71.20
2017-10-27T18:23:45.832Z,71.30
2017-10-27T18:26:19.613Z,71.50
2017-10-27T18:28:49.832Z,71.00
2017-10-27T18:31:21.492Z,71.10
2017-10-27T18:33:52.493Z,71.00
2017-10-27T18:36:24.292Z,70.90
2017-10-27T18:39:00.512Z,71.20
2017-10-27T18:41:32.512Z,71.20
2017-10-27T18:44:08.392Z,70.60
2017-10-27T18:46:40.756Z,70.60
2017-10-27T18:49:11.873Z,71.10
2017-10-27T18:51:45.493Z,70.80
2017-10-27T18:54:18.872Z,70.30
2017-10-27T18:56:51.513Z,70.60
2017-10-27T18:59:23.013Z,71.10
2017-10-27T19:01:56.512Z,70.60
2017-10-27T19:04:27.952Z,71.30
2017-10-27T19:07:03.953Z,71.50
2017-10-27T19:09:38.114Z,71.60
2017-10-27T19:12:09.693Z,71.70
2017-10-27T19:14:43.535Z,71.90
2017-10-27T19:17:16.533Z,71.10
2017-10-27T19:19:47.712Z,71.20
2017-10-27T19:22:17.933Z,71.20
2017-10-27T19:24:48.793Z,70.50
2017-10-27T19:27:19.553Z,70.40
2017-10-27T19:29:49.932Z,70.40
2017-10-27T19:32:21.072Z,70.80
2017-10-27T19:34:51.903Z,70.60
2017-10-27T19:37:22.656Z,70.60
2017-10-27T19:39:53.376Z,70.80
2017-10-27T19:42:24.015Z,70.30
2017-10-27T19:44:55.356Z,70.60
2017-10-27T19:47:27.235Z,70.70
2017-10-27T19:50:00.717Z,70.20
2017-10-27T19:52:32.477Z,70.40
2017-10-27T19:55:03.555Z,69.70
2017-10-27T19:57:37.628Z,69.80
2017-10-27T20:00:15.318Z,70.00
2017-10-27T20:02:53.502Z,70.10
2017-10-27T20:05:24.770Z,70.30
2017-10-27T20:08:01.509Z,69.30
2017-10-27T20:10:32.362Z,69.20
2017-10-27T20:13:08.340Z,69.60
2017-10-27T20:15:46.520Z,69.60
2017-10-27T20:18:18.302Z,69.50
2017-10-27T20:20:53.142Z,70.40
2017-10-27T20:23:31.521Z,69.60
2017-10-27T20:26:03.000Z,69.50
2017-10-27T20:28:35.520Z,69.60
2017-10-27T20:31:11.120Z,69.60
2017-10-27T20:33:42.881Z,69.80
2017-10-27T20:36:13.900Z,70.20
2017-10-27T20:38:45.861Z,70.10
2017-10-27T20:41:17.101Z,70.20
2017-10-27T20:43:48.961Z,70.10
2017-10-27T20:46:20.941Z,70.10
2017-10-27T20:48:54.841Z,70.00
2017-10-27T20:51:25.260Z,70.00
2017-10-27T20:53:55.800Z,69.60
2017-10-27T20:56:26.740Z,70.30
2017-10-27T20:58:57.979Z,69.70
2017-10-27T21:01:31.541Z,69.80
2017-10-27T21:04:05.281Z,69.70
2017-10-27T21:06:42.161Z,69.80
2017-10-27T21:09:18.120Z,69.80
2017-10-27T21:11:52.524Z,69.30
2017-10-27T21:14:25.123Z,69.30
2017-10-27T21:16:56.461Z,69.20
2017-10-27T21:19:27.321Z,69.50
2017-10-27T21:22:02.358Z,69.00
2017-10-27T21:24:37.464Z,69.00
2017-10-27T21:27:09.647Z,69.00
2017-10-27T21:29:40.882Z,69.00
2017-10-27T21:32:12.222Z,68.50
2017-10-27T21:34:43.783Z,68.40
2017-10-27T21:37:15.962Z,67.90
2017-10-27T21:39:53.242Z,68.40
2017-10-27T21:42:24.487Z,68.20
2017-10-27T21:44:55.521Z,68.20
2017-10-27T21:47:27.703Z,68.20
2017-10-27T21:49:58.223Z,68.00
2017-10-27T21:52:28.964Z,68.00
2017-10-27T21:54:59.787Z,68.90
2017-10-27T21:57:30.722Z,68.10
2017-10-27T22:00:02.682Z,68.50
2017-10-27T22:02:36.524Z,68.70
2017-10-27T22:05:10.086Z,68.60
2017-10-27T22:07:41.542Z,68.00
2017-10-27T22:10:12.882Z,68.90
2017-10-27T22:12:46.782Z,68.90
2017-10-27T22:15:18.663Z,68.40
2017-10-27T22:17:52.142Z,68.60
2017-10-27T22:20:24.723Z,68.50
2017-10-27T22:22:55.464Z,67.10
2017-10-27T22:25:27.521Z,68.00
2017-10-27T22:27:58.362Z,68.00
2017-10-27T22:30:33.182Z,68.30
2017-10-27T22:33:04.541Z,69.00
2017-10-27T22:35:37.582Z,68.10
2017-10-27T22:38:09.183Z,68.50
2017-10-27T22:40:41.043Z,69.10
2017-10-27T22:43:11.541Z,69.30
2017-10-27T22:45:42.501Z,69.10
2017-10-27T22:48:15.542Z,69.10
2017-10-27T22:50:46.543Z,69.10
2017-10-27T22:53:16.961Z,69.10
2017-10-27T22:55:47.902Z,69.30
2017-10-27T22:58:22.002Z,69.20
2017-10-27T23:00:54.282Z,69.00
2017-10-27T23:03:27.362Z,69.40
2017-10-27T23:06:01.163Z,70.20
2017-10-27T23:08:34.983Z,70.20
2017-10-27T23:11:14.203Z,70.10
2017-10-27T23:13:44.562Z,70.00
2017-10-27T23:16:18.544Z,70.40
2017-10-27T23:18:48.979Z,70.40
2017-10-27T23:21:21.544Z,70.10
2017-10-27T23:23:57.182Z,69.90
2017-10-27T23:26:30.182Z,70.00
2017-10-27T23:29:02.022Z,69.80
2017-10-27T23:31:33.382Z,70.00
2017-10-27T23:34:06.363Z,69.20
2017-10-27T23:36:37.503Z,69.40
2017-10-27T23:39:09.364Z,69.30
2017-10-27T23:41:46.663Z,69.40
2017-10-27T23:44:19.603Z,68.60
2017-10-27T23:46:51.902Z,67.90
2017-10-27T23:49:24.682Z,68.20
2017-10-27T23:51:56.263Z,68.40
2017-10-27T23:54:28.523Z,68.40
2017-10-27T23:56:59.662Z,69.00
2017-10-27T23:59:31.823Z,68.00
